Tiempo atmosférico en la estación meteorológica de Málaga, Puerto, Málaga (20 m.)



Fecha
DESCASC
Temp. máxima en grados centígrados (hora)
DESCASC
Temp. mínima en grados centígrados (hora)
DESCASC
Temp. media en grados centígrados
DESCASC
Racha de viento máxima en m/sg (hora)
DESCASC
Velocidad máxima media en intervalos de 10 minutos(hora)
DESCASC
Precipitaciones diarias en mm
DESCASC
Precipitaciones de 00:00 a 06:00 en mm
DESCASC
Precipitaciones de 06:00 a 12:00 en mm
DESCASC
Precipitaciones de 12:00 a 18:00 en mm
DESCASC
Precipitaciones de 18:00 a 24:00 en mm
DESCASC
05-04-2020 20.2 (11:30) 12.8 (08:20) 16.5 5.28 (15:50) 3.89 (15:10) 0 0 0 0 0
04-04-2020 18.8 (13:20) 14.3 (06:10) 16.5 11.94 (16:50) 6.11 (16:10) 0.1 0 0 0.1 0
03-04-2020 18.4 (12:30) 12.6 (05:50) 15.5 8.89 (15:30) 5.56 (15:20) 0 0 0 0 0
02-04-2020 16 (13:50) 8.9 (00:00) 12.4 9.44 (08:20) 4.72 (22:40) 18.1 0 8.2 9.9 0
01-04-2020 19.6 (18:00) 12.9 (00:00) 16.3 8.61 (19:30) 6.11 (19:30) 3.2 0 0 3.1 0.1
31-03-2020 15.4 (00:00) 12.4 (00:00) 13.9 16.39 (08:30) 9.72 (08:30) 59.9 15.1 11.6 32.2 1
30-03-2020 19.2 (10:50) 12.1 (00:00) 15.7 5.83 (15:50) 3.33 (16:00) 0 0 0 0 0
29-03-2020 20.3 (12:20) 11.5 (00:00) 15.9 7.22 (13:30) 4.72 (13:40) 0 0 0 0 0
28-03-2020 17.3 (16:40) 12.7 (00:00) 15 8.61 (04:10) 4.44 (07:20) 2.8 0.4 2.4 0 0
27-03-2020 16.3 (00:00) 13.6 (00:00) 14.9 10 (06:10) 5.28 (04:20) 0.4 0 0.3 0.1 0
26-03-2020 24.1 (16:00) 10.8 (00:00) 17.5 9.72 (17:00) 4.17 (14:30) 0 0 0 0 0
25-03-2020 17.5 (19:30) 11.7 (00:00) 14.6 7.22 (12:30) 4.17 (11:20) 9.2 0.6 8.3 0.3 0
24-03-2020 19.2 (16:20) 12 (00:00) 15.6 6.67 (06:50) 3.33 (04:30) 3.7 1.6 1.9 0 0.2
23-03-2020 15.3 (11:00) 10.3 (00:00) 12.8 6.11 (23:00) 3.33 (22:20) 23 0 0 22.7 0.3
22-03-2020 15.9 (11:50) 10.5 (05:50) 13.2 9.17 (01:00) 5.28 (01:00) 8.9 8.8 0.1 0 0
21-03-2020 17.6 (10:30) 10.4 (00:00) 14 13.06 (03:40) 7.5 (02:30) 28.5 26.2 0.1 0.6 1.6
20-03-2020 21.3 (14:10) 14.5 (00:00) 17.9 12.78 (22:20) 5.83 (17:30) 0 0 0 0 0
19-03-2020 18.2 (13:50) 15.6 (00:00) 16.9 8.33 (15:50) 5.28 (15:30) 0 0 0 0 0
18-03-2020 20.4 (14:50) 13.9 (00:00) 17.1 12.78 (02:10) 6.67 (02:10) 0 0 0 0 0
17-03-2020 17.3 (13:00) 11.9 (00:00) 14.6 11.67 (12:30) 5.83 (15:30) 0.8 0 0.8 0 0
16-03-2020 18.1 (15:00) 12.8 (00:00) 15.5 11.94 (17:00) 5.56 (17:00) 0 0 0 0 0
15-03-2020 17.4 (14:50) 14.6 (00:00) 16 6.67 (14:30) 4.17 (13:10) 0.9 0 0 0.9 0
14-03-2020 19.6 (12:00) 14.6 (00:00) 17.1 4.17 (15:10) 2.78 (13:50) 0 0 0 0 0
13-03-2020 20.9 (14:50) 15 (23:59) 17.9 7.5 (18:20) 3.89 (18:20) 0 0 0 0 0
12-03-2020 26.7 (12:00) 15.5 (00:00) 21.1 5 (03:40) 3.61 (05:10) 0 0 0 0 0
11-03-2020 23.7 (15:00) 13.8 (00:00) 18.8 4.72 (02:00) 2.5 (01:40) 0 0 0 0 0
10-03-2020 24.4 (11:00) 15.2 (00:00) 19.8 7.78 (03:10) 3.89 (14:10) 0 0 0 0 0

Gráficas

Temp. máximas Temp. mínimas Temp. medias Precipitaciones Rachas de viento máximas Velocidades máximas media en intervalos de 10 minutos

Datos horarios

Fecha y hora oficial Temperatura (ºC) Velocidad del viento (km/h) Dirección del viento Racha (km/h) Dirección de racha Precipitación (mm) Presión (hPa) Tendencia (hPa) Humedad (%)
2020-04-08 23:00:00 16.2 0 Calma 10 Sudeste 0 1019.9 0.9 80
2020-04-08 22:00:00 15.9 0 Calma 12 Sudeste 0 1019.6 0.8 79
2020-04-08 21:00:00 15.9 8 Sudeste 13 Sudeste 0 1019.2 0.3 79
2020-04-08 20:00:00 16 8 Sudeste 13 Sudeste 0 1019 0 77
2020-04-08 19:00:00 16.1 9 Sudeste 14 Sudeste 0 1018.8 -1.3 74
2020-04-08 18:00:00 16.1 6 Sudeste 14 Sudeste 0 1018.9 -1.5 71
2020-04-08 17:00:00 16.6 10 Sudeste 15 Este 0 1019 -1.8 67
2020-04-08 16:00:00 16.8 7 Sudeste 18 Sudeste 0 1020.1 -1.1 69
2020-04-08 15:00:00 16.1 14 Sudeste 18 Sudeste 0 1020.4 -1.1 69
2020-04-08 14:00:00 16 12 Sudeste 15 Sudeste 0 1020.8 -0.5 74
2020-04-08 13:00:00 15.9 10 Sudeste 15 Sudeste 0 1021.2 0 75
2020-04-08 12:00:00 15.9 9 Sudeste 14 Sudeste 0 1021.5 0.2 75
2020-04-08 11:00:00 16.4 0 Calma 11 Sudeste 0 1021.3 0.5 77
2020-04-08 10:00:00 16.1 0 Calma 4 Este 0 1021.2 0.7 78
2020-04-08 09:00:00 15.6 0 Calma 2 Sudoeste 0 1021.3 0.5 80
2020-04-08 08:00:00 15.3 0 Calma 0 Calma 0 1020.8 -0.6 80
2020-04-08 07:00:00 15.4 0 Calma 0 Calma 0 1020.5 -1.3 78
2020-04-08 06:00:00 15.5 0 Calma 2 Nordeste 0 1020.8 -1.8 78
2020-04-08 05:00:00 15.5 0 Calma 4 Este 0 1021.4 -1.4 78
2020-04-08 04:00:00 15.6 0 Calma 3 Nordeste 0 1021.8 -1.1 79
2020-04-08 03:00:00 15.6 0 Calma 5 Este 0 1022.6 -0.1 79
2020-04-08 02:00:00 16 2 Este 5 Este 0 1022.8 0.2 76
2020-04-08 01:00:00 16 0 Calma 4 Nordeste 0 1022.9 0.7 76
2020-04-08 00:00:00 16.1 0 Calma 7 Nordeste 0 1022.7 1.3 76
2020-04-07 23:00:00 16.1 3 Este 12 Sudeste 0 1022.6 1.4 77
2020-04-07 22:00:00 16.1 7 Este 12 Este 0 1022.2 1.1 76
2020-04-07 21:00:00 16.3 0 Calma 6 Este 0 1021.4 0.4 70
2020-04-07 20:00:00 16.5 5 Este 9 Este 0 1021.2 0.2 70
2020-04-07 19:00:00 16.3 5 Este 9 Nordeste 0 1021.1 -0.4 71
2020-04-07 18:00:00 16.4 4 Este 12 Sudeste 0 1021 -1.3 75
2020-04-07 17:00:00 15.9 8 Sudeste 15 Este 0 1021 -1.7 78
2020-04-07 16:00:00 16.1 8 Este 13 Sudeste 0 1021.5 -1.4 77
2020-04-07 15:00:00 16.8 4 Sudeste 13 Sudeste 0 1022.3 -0.8 75
2020-04-07 14:00:00 16.4 10 Sudeste 18 Este 0 1022.7 -0.1 76
2020-04-07 13:00:00 16.4 8 Sudeste 15 Sudeste 0 1022.9 0.9 75
2020-04-07 12:00:00 16 11 Este 17 Sudeste 0 1023.1 1.5 80
2020-04-07 11:00:00 15.7 9 Sudeste 15 Este 0 1022.8 1.3 80
2020-04-07 10:00:00 16.3 6 Sudeste 11 Este 0 1022 0.5 75
2020-04-07 09:00:00 16.7 0 Calma 7 Este 0 1021.6 0.4 76
2020-04-07 08:00:00 15.3 3 Este 13 Este 0 1021.5 0.4 78
2020-04-07 07:00:00 15.6 7 Sudeste 11 Sudeste 0 1021.5 0.1 78
2020-04-07 06:00:00 15.7 6 Sudeste 12 Sudeste 0 1021.2 -0.1 78
2020-04-07 05:00:00 15.8 8 Este 13 Sudeste 0 1021.1 -0.4 78
2020-04-07 04:00:00 15.8 0 Calma 10 Este 0 1021.4 -0.4 80
2020-04-07 03:00:00 15.9 3 Este 13 Nordeste 0 1021.3 -0.5 77
2020-04-07 02:00:00 15.9 8 Nordeste 13 Nordeste 0 1021.5 -0.2 76
2020-04-07 01:00:00 15.8 5 Este 13 Este 0 1021.8 0.6 79
2020-04-07 00:00:00 16 6 Sudeste 11 Este 0 1021.8 1.6 77
2020-04-06 23:00:00 16.4 0 Calma 12 Sur 0 1021.7 2.2 76
2020-04-06 22:00:00 15.9 7 Sudeste 12 Sur 0 1021.2 1.7 76
2020-04-06 21:00:00 15.9 0 Calma 12 Sudeste 0 1020.2 0.6 75
2020-04-06 20:00:00 16.4 8 Sudeste 13 Sudeste 0 1019.5 -0.4 71
2020-04-06 19:00:00 17.5 5 Sudeste 13 Sudeste 0 1019.5 -0.8 67
2020-04-06 18:00:00 18 3 Sur 13 Sur 0 1019.6 -0.8 66
2020-04-06 17:00:00 18.4 0 Calma 12 Sur 0 1019.9 -1 63
2020-04-06 16:00:00 19 0 Calma 9 Sudeste 0 1020.3 -1 63
2020-04-06 15:00:00 17.9 0 Calma 17 Sudeste 0 1020.4 -0.7 66
2020-04-06 14:00:00 18 5 Sudeste 14 Sudeste 0 1020.9 0 66
2020-04-06 13:00:00 16.9 8 Sudeste 12 Sudeste 0 1021.3 0.7 69
2020-04-06 12:00:00 17.5 0 Calma 2 Sur 0 1021.1 0.8 64
2020-04-06 11:00:00 17.1 0 Calma 0 Calma 0 1020.9 1.7 68
2020-04-06 10:00:00 15.3 0 Calma 5 Noroeste 0 1020.6 2.1 73
2020-04-06 09:00:00 14.3 2 Noroeste 9 Noroeste 0 1020.3 1.9 75
2020-04-06 08:00:00 13.7 0 Calma 10 Noroeste 0 1019.2 1.1 76
2020-04-06 07:00:00 13.2 0 Calma 13 Noroeste 0 1018.5 0.3 80
2020-04-06 06:00:00 13.4 0 Calma 2 Norte 0 1018.4 -0.4 83
2020-04-06 05:00:00 14.1 0 Calma 0 Calma 0 1018.1 -1 82
2020-04-06 04:00:00 14.7 0 Calma 0 Calma 0 1018.2 -0.6 80
2020-04-06 03:00:00 15.2 0 Calma 0 Calma 0 1018.8 0.1 79
2020-04-06 02:00:00 15.5 0 Calma 0 Calma 0 1019.1 0.6 79
2020-04-06 01:00:00 15.6 0 Calma 9 Sudeste 0 1018.8 0.8 77
2020-04-06 00:00:00 15.8 3 Este 6 Este 0 1018.7 1.3 72
2020-04-05 23:00:00 15.7 0 Calma 4 Este 0 1018.5 1.7 76
2020-04-05 22:00:00 15.9 0 Calma 11 Este 0 1018 1.4 74
2020-04-05 21:00:00 15.9 0 Calma 12 Sudeste 0 1017.4 0.9 70
2020-04-05 20:00:00 16.3 6 Sudeste 12 Sudeste 0 1016.8 0.4 66
2020-04-05 19:00:00 16.7 4 Sudeste 14 Sudeste 0 1016.6 0 63
2020-04-05 18:00:00 18.1 4 Este 15 Sudeste 0 1016.5 -0.4 58
2020-04-05 17:00:00 16.5 10 Sudeste 16 Sudeste 0 1016.4 -1.1 63
2020-04-05 16:00:00 16.6 13 Sudeste 19 Sudeste 0 1016.6 -1 61
2020-04-05 15:00:00 16.4 12 Sudeste 18 Sur 0 1016.9 -0.6 59
2020-04-05 14:00:00 18.1 9 Sur 15 Sur 0 1017.5 0.3 55
2020-04-05 13:00:00 18.2 0 Calma 13 Sur 0 1017.6 0.8 53
2020-04-05 12:00:00 19.2 0 Calma 8 Este 0 1017.5 0.9 48
2020-04-05 11:00:00 18.8 0 Calma -- -- -- 1017.2 0.8 57
2020-04-05 10:00:00 15.3 0 Calma 12 Norte 0 1016.8 0.8 67
2020-04-05 09:00:00 13.1 5 Norte 14 Norte 0 1016.6 0.8 76
2020-04-05 08:00:00 13 0 Calma 14 Norte 0 1016.4 0.8 78
2020-04-05 07:00:00 13.1 0 Calma 10 Norte 0 1016 0.3 80
2020-04-05 06:00:00 13.2 0 Calma 11 Noroeste 0 1015.8 -0.3 80
2020-04-05 05:00:00 13.7 4 Noroeste 11 Noroeste 0 1015.6 -0.5 78
2020-04-05 04:00:00 14 0 Calma 0 Calma 0 1015.7 -0.6 77
2020-04-05 03:00:00 14.8 0 Calma 5 Este 0 1016.1 -0.2 76
2020-04-05 02:00:00 15.4 0 Calma 16 Sudeste 0 1016.1 0.2 75
2020-04-05 01:00:00 14.8 0 Calma 0 Calma 0 1016.3 0.8 76
2020-04-05 00:00:00 15 0 Calma 6 Norte 0 1016.3 1.7 75
2020-04-04 23:00:00 15.5 0 Calma 5 Norte 0 1015.9 2 71
2020-04-04 22:00:00 16 2 Nordeste 8 Nordeste 0 1015.5 1.9 68
2020-04-04 21:00:00 16.3 0 Calma 17 Sudoeste 0 1014.6 1.8 66
2020-04-04 20:00:00 16.4 14 Sudoeste 19 Sudoeste 0 1013.9 1.6 64
2020-04-04 19:00:00 17.2 15 Sur 27 Sur 0 1013.6 0.5 63
2020-04-04 18:00:00 17.2 12 Sudeste 27 Nordeste 0 1012.8 -1.9 55
2020-04-04 17:00:00 17.4 13 Este 43 Este 0 1012.3 -1.8 48
2020-04-04 16:00:00 16.4 13 Este 32 Este 0.1 1013.1 -0.6 64
2020-04-04 15:00:00 17 7 Sudeste 23 Sudeste 0 1014.7 1.3 60
2020-04-04 14:00:00 16.9 14 Sudeste 23 Sur 0 1014.1 1.7 58
2020-04-04 13:00:00 18.3 3 Sudeste 22 Este 0 1013.7 1.6 54
2020-04-04 12:00:00 18.1 5 Este 29 Este 0 1013.4 1.1 54
2020-04-04 11:00:00 16.4 12 Este 32 Sur 0 1012.4 -0.1 60
2020-04-04 10:00:00 15.8 10 Este 27 Este 0 1012.1 -0.1 63
2020-04-04 09:00:00 15.6 3 Este 18 Nordeste 0 1012.3 -0.1 64
2020-04-04 08:00:00 14.4 6 Este 21 Este 0 1012.5 -0.4 68
2020-04-04 07:00:00 14.4 4 Este 22 Este 0 1012.2 -1.1 68
2020-04-04 06:00:00 14.4 3 Este 22 Este 0 1012.4 -1.3 66
2020-04-04 05:00:00 14.6 6 Este 21 Nordeste 0 1012.9 -1.2 64
2020-04-04 04:00:00 14.5 8 Este 21 Este 0 1013.3 -1.2 65
2020-04-04 03:00:00 14.5 9 Este 22 Nordeste 0 1013.7 -1.2 68
2020-04-04 02:00:00 14.7 13 Este 30 Este 0 1014.1 -0.8 68
2020-04-04 01:00:00 14.9 15 Este 28 Nordeste 0 1014.5 0.3 68
2020-04-04 00:00:00 14.8 9 Este 18 Nordeste 0 1014.9 1.4 70
2020-04-03 23:00:00 15.6 7 Este 19 Este 0 1014.9 1.3 68
2020-04-03 22:00:00 15.4 8 Este 26 Este 0 1014.2 0.8 67
2020-04-03 21:00:00 15.6 11 Este 27 Sudeste 0 1013.5 0 67
2020-04-03 20:00:00 15.8 12 Sudeste 28 Sudeste 0 1013.6 0 67
2020-04-03 19:00:00 16.4 12 Este 26 Sudeste 0 1013.4 -0.4 64
2020-04-03 18:00:00 15.9 18 Sudeste 30 Este 0 1013.5 -0.6 65
2020-04-03 17:00:00 16.5 15 Sudeste 31 Sudeste 0 1013.6 -0.9 63
2020-04-03 16:00:00 16.7 14 Sudeste 32 Sudeste 0 1013.8 -0.9 61
2020-04-03 15:00:00 17.5 5 Sudeste 26 Sudeste 0 1014.1 -0.6 56
2020-04-03 14:00:00 17.6 9 Sudeste 23 Sur 0 1014.5 0.9 57
2020-04-03 13:00:00 17.7 6 Este 22 Este 0 1014.7 1.7 55
2020-04-03 12:00:00 17.5 5 Este 21 Este 0 1014.7 1.7 52
2020-04-03 11:00:00 17.4 5 Sudeste 20 Este 0 1013.6 1 54
2020-04-03 10:00:00 16.9 0 Calma 16 Oeste 0 1013 0.6 50
2020-04-03 09:00:00 13.2 0 Calma 3 Noroeste 0 1013 0.5 60
2020-04-03 08:00:00 13.2 0 Calma 18 Noroeste 0 1012.6 0.2 59
2020-04-03 07:00:00 13.3 4 Norte 17 Norte 0 1012.4 -0.5 58
2020-04-03 06:00:00 12.8 0 Calma 15 Noroeste 0 1012.5 -0.5 61
2020-04-03 05:00:00 13.2 5 Noroeste 16 Noroeste 0 1012.4 -1 58
2020-04-03 04:00:00 13.7 0 Calma 3 Oeste 0 1012.9 -0.4 56
2020-04-03 03:00:00 13.6 0 Calma 13 Oeste 0 1013 0.5 56
2020-04-03 02:00:00 13.4 0 Calma 9 Sudoeste 0 1013.4 1.1 57
2020-04-03 01:00:00 13.5 0 Calma 13 Oeste 0 1013.3 1.6 57
2020-04-03 00:00:00 14.1 0 Calma 31 Noroeste 0 1012.5 1.8 53
2020-04-02 23:00:00 14.2 5 Noroeste 31 Noroeste 0 1012.3 1.9 52
2020-04-02 22:00:00 14.6 0 Calma 28 Noroeste 0 1011.7 1.4 51
2020-04-02 21:00:00 14.7 4 Noroeste 24 Norte 0 1010.7 1.1 52
2020-04-02 20:00:00 14.7 5 Noroeste 19 Noroeste 0 1010.4 0.7 55
2020-04-02 19:00:00 14.5 0 Calma 18 Este 0 1010.3 0.7 64
2020-04-02 18:00:00 12.7 14 Este 26 Nordeste 0 1009.6 0.4 68
2020-04-02 17:00:00 13.8 8 Este 17 Este 6.3 1009.7 0.4 64
2020-04-02 16:00:00 12.6 12 Sur 24 Sudoeste 3.6 1009.6 0 67
2020-04-02 15:00:00 14.4 0 Calma 10 Sudeste 0 1009.2 -0.4 57
2020-04-02 14:00:00 14.9 0 Calma 2 Sudeste 0 1009.3 0.1 53
2020-04-02 13:00:00 13.1 0 Calma 5 Sur 0 1009.6 0.5 62
2020-04-02 12:00:00 13 0 Calma 9 Sudeste 0 1009.6 0.5 56
2020-04-02 11:00:00 14.4 5 Este 9 Este 0 1009.2 0.6 58
2020-04-02 10:00:00 10.5 0 Calma 24 Norte 0.9 1009.1 1 76
2020-04-02 09:00:00 9 6 Norte 34 Nordeste 5.9 1009.1 0.7 78
2020-04-02 08:00:00 12.7 0 Calma 18 Sur 1.4 1008.6 -0.3 79
2020-04-02 07:00:00 13.7 4 Este 15 Nordeste 0 1008.1 -1.4 66
2020-04-02 06:00:00 12.9 0 Calma 8 Norte 0 1008.4 -2 63
2020-04-02 05:00:00 12.1 0 Calma 8 Noroeste 0 1008.9 -1.8 63
2020-04-02 04:00:00 12 0 Calma 15 Nordeste 0 1009.5 -1.8 63
2020-04-02 03:00:00 12 0 Calma 11 Norte 0 1010.4 -1.4 63
2020-04-02 02:00:00 12.3 5 Norte 9 Norte 0 1010.7 -0.9 62
2020-04-02 01:00:00 13.2 3 Norte 8 Norte 0 1011.3 0.4 57
2020-04-02 00:00:00 14.5 0 Calma 8 Noroeste 0 1011.8 2.3 51
2020-04-01 23:00:00 14.9 0 Calma 15 Norte 0 1011.6 2.3 51
2020-04-01 22:00:00 15.6 5 Noroeste 25 Noroeste 0 1010.9 1.7 48
2020-04-01 21:00:00 16.8 5 Sudoeste 18 Sudoeste 0 1009.5 0.4 44
2020-04-01 20:00:00 17.4 16 Sudoeste 31 Sudoeste 0.1 1009.3 -0.2 45
2020-04-01 19:00:00 18.9 3 Sudeste 12 Este 0 1009.2 -0.7 43
2020-04-01 18:00:00 19.6 0 Calma 21 Este 0 1009.1 -1.1 48
2020-04-01 17:00:00 17.2 4 Sudeste 17 Sur 0 1009.5 -0.7 56
2020-04-01 16:00:00 16.5 7 Sudeste 16 Sudeste 0 1009.9 -1 60
2020-04-01 15:00:00 15.4 0 Calma 29 Sudoeste 3.1 1010.2 -1.1 71
2020-04-01 14:00:00 16.2 18 Sur 27 Sudoeste 0 1010.2 -1.1 64
2020-04-01 13:00:00 15.9 0 Calma 3 Sudoeste 0 1010.9 0.4 68
2020-04-01 12:00:00 16.5 0 Calma 9 Nordeste 0 1011.3 1.1 64
2020-04-01 11:00:00 15.6 0 Calma 0 Calma 0 1011.3 1.7 71
2020-04-01 10:00:00 14.3 0 Calma 2 Noroeste 0 1010.5 1.3 76
2020-04-01 09:00:00 13.1 0 Calma 0 Calma 0 1010.2 1.3 83
2020-04-01 08:00:00 13.1 0 Calma 4 Nordeste 0 1009.6 0.9 84
2020-04-01 07:00:00 13.4 0 Calma 6 Norte 0 1009.2 0.3 83
2020-04-01 06:00:00 13.6 0 Calma 7 Nordeste 0 1008.9 -0.3 83
2020-04-01 05:00:00 14.1 5 Nordeste 17 Este 0 1008.7 -0.5 83
2020-04-01 04:00:00 14.3 8 Este 19 Nordeste 0 1008.9 -0.4 83
2020-04-01 03:00:00 14.3 5 Nordeste 8 Nordeste 0 1009.2 0.3 80
2020-04-01 02:00:00 14.4 3 Este 18 Este 0 1009.2 0.4 80
2020-04-01 01:00:00 15 9 Este 16 Este 0 1009.3 1.2 81
2020-04-01 00:00:00 15.3 0 Calma 21 Sudeste 0 1008.9 1.5 77
2020-03-31 23:00:00 14.9 10 Este 23 Este 0.5 1008.8 2.5 86
2020-03-31 22:00:00 15 14 Sudeste 26 Este 0.1 1008.1 2.1 86
2020-03-31 21:00:00 14.8 14 Sudeste 26 Sudeste 0 1007.4 1.3 86
2020-03-31 20:00:00 15 17 Sudeste 27 Sudeste 0.3 1006.3 0.8 84
2020-03-31 19:00:00 14.6 12 Sudeste 19 Sudeste 0.1 1006 0.6 86
2020-03-31 18:00:00 14.7 9 Sudeste 36 Este 0.1 1006.1 0.6 81
2020-03-31 17:00:00 14.5 12 Este 32 Este 0.8 1005.5 -0.3 83
2020-03-31 16:00:00 14.7 13 Sudeste 28 Sudeste 0.2 1005.4 -0.2 80
2020-03-31 15:00:00 14.3 9 Este 19 Este 1.5 1005.5 0.3 88
2020-03-31 14:00:00 13.1 2 Este 26 Este 13.8 1005.8 0.8 90
2020-03-31 13:00:00 12.6 18 Este 29 Nordeste 15.8 1005.6 2.1 90
2020-03-31 12:00:00 12.8 12 Este 22 Sur 3 1005.2 2.1 88
2020-03-31 11:00:00 13.5 18 Sur 46 Sudeste 3.6 1005 2.2 87
2020-03-31 10:00:00 14.1 25 Sudeste 49 Sudeste 0.5 1003.5 0.8 84
2020-03-31 09:00:00 14.3 35 Este 59 Sudeste 1.2 1003.1 0.3 84
2020-03-31 08:00:00 13 23 Este 50 Nordeste 2.8 1002.8 -1.2 90
2020-03-31 07:00:00 13.1 15 Este 39 Nordeste 0.5 1002.7 -1 86
2020-03-31 06:00:00 13 19 Este 40 Nordeste 1 1002.8 -1.4 84
2020-03-31 05:00:00 12.8 11 Este 33 Este 0.8 1004 -0.8 84
2020-03-31 04:00:00 13.3 18 Sudeste 35 Sudeste 2.4 1003.7 -1.4 85
2020-03-31 03:00:00 13.9 12 Este 19 Este 6.6 1004.2 -0.7 89
2020-03-31 02:00:00 14.2 4 Este 19 Este 4.3 1004.8 -1.1 83
2020-03-31 01:00:00 15.3 7 Este 15 Este 0 1005.1 -0.6 72
2020-03-31 00:00:00 15.4 8 Este 20 Este 0 1004.9 -0.7 70
2020-03-30 23:00:00 15.4 6 Este 13 Este 0 1005.9 0 71
2020-03-30 22:00:00 15.6 4 Este 14 Este 0 1005.7 -0.4 72
2020-03-30 21:00:00 15.4 7 Sudeste 13 Este 0 1005.6 -0.7 71
2020-03-30 20:00:00 15.6 8 Sudeste 13 Sudeste 0 1005.9 -1.1 70
2020-03-30 19:00:00 15.7 9 Este 14 Sudeste 0 1006.1 -1.2 70
2020-03-30 18:00:00 16.3 9 Este 16 Este 0 1006.3 -1.6 67
2020-03-30 17:00:00 16.1 11 Este 17 Este 0 1007 -1.5 67
2020-03-30 16:00:00 16 12 Sudeste 21 Este 0 1007.3 -1.9 67
2020-03-30 15:00:00 17.4 8 Este 16 Este 0 1007.9 -1.9 63
2020-03-30 14:00:00 16.2 0 Calma 18 Sur 0 1008.5 -1.4 69
2020-03-30 13:00:00 17.3 0 Calma 14 Sur 0 1009.2 -1.2 67
2020-03-30 12:00:00 17.3 5 Sur 13 Sur 0 1009.8 -1 59
2020-03-30 11:00:00 18 0 Calma 4 Este 0 1009.9 -0.9 54
2020-03-30 10:00:00 14.5 0 Calma 3 Noroeste 0 1010.4 -0.2 66
2020-03-30 09:00:00 12.9 0 Calma 6 Norte 0 1010.8 -0.3 74
2020-03-30 08:00:00 12.2 0 Calma 9 Noroeste 0 1010.8 -1.1 76
2020-03-30 07:00:00 12.5 0 Calma 2 Norte 0 1010.6 -1.7 75
2020-03-30 06:00:00 12.9 0 Calma 6 Norte 0 1011.1 -1.9 73
2020-03-30 05:00:00 13.2 0 Calma 6 Norte 0 1011.9 -1.7 70
2020-03-30 04:00:00 13.7 0 Calma 2 Nordeste 0 1012.3 -1.7 69
2020-03-30 03:00:00 13.8 0 Calma 4 Nordeste 0 1013 -1.4 71
2020-03-30 02:00:00 13.8 0 Calma 8 Noroeste 0 1013.6 -1.1 71
2020-03-30 01:00:00 13.8 0 Calma 10 Nordeste 0 1014 -0.3 75
2020-03-30 00:00:00 14.1 0 Calma 5 Norte 0 1014.4 0.2 75
2020-03-29 23:00:00 15.2 0 Calma 4 Este 0 1014.7 0.5 72
2020-03-29 22:00:00 15.3 0 Calma 0 Calma 0 1014.3 0.1 69
2020-03-29 21:00:00 15.3 0 Calma 8 Sur 0 1014.2 -0.1 68
2020-03-29 20:00:00 15.4 6 Sudeste 12 Sudeste 0 1014.2 -0.4 64
2020-03-29 19:00:00 16.5 2 Sudeste 15 Sudeste 0 1014.2 -0.9 61
2020-03-29 18:00:00 15.8 8 Sudeste 13 Sur 0 1014.3 -1.4 61
2020-03-29 17:00:00 17 5 Sudeste 15 Sur 0 1014.6 -1.3 55
2020-03-29 16:00:00 17.3 10 Sur 18 Sur 0 1015.1 -1.1 55
2020-03-29 15:00:00 16.9 12 Sur 19 Sudoeste 0 1015.7 -0.6 57
2020-03-29 14:00:00 16.2 7 Sudoeste 26 Sudoeste 0 1015.9 0 56
2020-03-29 13:00:00 16.9 0 Calma 3 Sudoeste 0 1016.2 -0.1 55
2020-03-29 12:00:00 19.5 0 Calma 2 Sudoeste 0 1016.3 -0.5 40
2020-03-29 11:00:00 17 0 Calma 8 Noroeste 0 1015.9 -0.9 52
2020-03-29 10:00:00 14.4 0 Calma 14 Noroeste 0 1016.3 -0.4 61
2020-03-29 09:00:00 12.2 2 Norte 12 Norte 0 1016.8 -0.1 72
2020-03-29 08:00:00 11.9 0 Calma 13 Norte 0 1016.8 -0.3 77
2020-03-29 07:00:00 12 0 Calma 6 Norte 0 1016.7 -0.9 79
2020-03-29 06:00:00 13.3 0 Calma 0 Calma 0 1016.9 -1.3 72
2020-03-29 05:00:00 13.8 0 Calma 6 Norte 0 1017.1 -1.4 69
2020-03-29 03:00:00 14.3 4 Nordeste 13 Este 0 1018.2 -0.1 68
2020-03-29 01:00:00 14.4 4 Este 13 Este 0 1018.5 0.7 68
2020-03-29 00:00:00 14.5 8 Este 14 Este 0 1018.5 1.5 68
2020-03-28 23:00:00 14.4 4 Nordeste 13 Nordeste 0 1018.3 1.9 67
2020-03-28 22:00:00 14.5 6 Este 13 Este 0 1017.8 1.9 66
2020-03-28 21:00:00 14.5 6 Este 12 Este 0 1017 1.6 64
2020-03-28 20:00:00 14.8 2 Sudeste 13 Sudeste 0 1016.4 1.3 63
2020-03-28 19:00:00 14.8 6 Sudeste 19 Sudeste 0 1015.9 0.9 62
2020-03-28 18:00:00 15 4 Sudeste 22 Sudeste 0 1015.4 0 60
2020-03-28 17:00:00 15.4 6 Sudeste 22 Sudeste 0 1015.1 -0.4 56
2020-03-28 16:00:00 16.5 6 Sudeste 21 Sudeste 0 1015 -0.3 55
2020-03-28 15:00:00 16.3 9 Sudeste 22 Este 0 1015.4 0.1 57
2020-03-28 14:00:00 15 6 Sudeste 24 Nordeste 0 1015.5 0.4 60
2020-03-28 13:00:00 14.7 9 Este 28 Este 0 1015.3 0.7 63
2020-03-28 12:00:00 13.9 11 Este 25 Este 0.2 1015.3 1.6 77
2020-03-28 11:00:00 13 10 Este 27 Este 1.3 1015.1 2.1 85
2020-03-28 10:00:00 13.1 12 Este 28 Nordeste 0 1014.6 2.5 83
2020-03-28 09:00:00 12.9 13 Este 22 Nordeste 0.7 1013.7 2 85
2020-03-28 08:00:00 13.2 8 Este 27 Este 0 1013 1.9 83
2020-03-28 07:00:00 12.8 13 Este 25 Este 0.2 1012.1 1.2 83
2020-03-28 06:00:00 13.3 12 Este 23 Este 0.1 1011.7 0.6 82
2020-03-28 05:00:00 13.2 11 Este 31 Sudeste 0.1 1011.1 -0.3 82
2020-03-28 04:00:00 14.2 10 Este 27 Este 0 1010.9 -0.5 76
2020-03-28 03:00:00 14.1 7 Este 19 Este 0.1 1011.1 -0.3 76
2020-03-28 02:00:00 14.2 9 Este 19 Este 0.1 1011.4 0.3 72
2020-03-28 01:00:00 14.2 8 Este 16 Nordeste 0 1011.4 0.6 71
2020-03-28 00:00:00 14.2 9 Este 18 Este 0 1011.4 1.4 71
2020-03-27 23:00:00 14.3 9 Nordeste 13 Nordeste 0 1011.1 2 70
2020-03-27 22:00:00 14.1 4 Nordeste 10 Este 0 1010.8 2.2 70
2020-03-27 21:00:00 14.1 3 Este 14 Este 0 1010 1.5 68
2020-03-27 20:00:00 14.5 10 Este 18 Sudeste 0 1009.1 1 67
2020-03-27 19:00:00 14.9 4 Este 24 Este 0 1008.6 0.6 64
2020-03-27 18:00:00 15.1 8 Este 24 Sudeste 0 1008.5 0.2 64
2020-03-27 17:00:00 15 14 Este 31 Este 0 1008.1 -0.7 64
2020-03-27 16:00:00 14.8 15 Este 32 Este 0 1008 -1.4 65
2020-03-27 15:00:00 14.9 8 Este 36 Nordeste 0 1008.3 -0.9 66
2020-03-27 14:00:00 15.1 10 Este 28 Nordeste 0 1008.8 -0.4 67
2020-03-27 13:00:00 13.7 17 Este 33 Nordeste 0.1 1009.4 0.7 73
2020-03-27 12:00:00 14.5 15 Este 35 Este 0.1 1009.2 1.1 70
2020-03-27 11:00:00 14.4 5 Este 36 Este 0 1009.2 1.6 68
2020-03-27 10:00:00 14.6 11 Este 31 Nordeste 0 1008.7 1.6 68
2020-03-27 09:00:00 14.5 8 Este 29 Este 0 1008.1 1.2 68
2020-03-27 08:00:00 14.5 10 Este 33 Este 0 1007.6 0.8 71
2020-03-27 07:00:00 14.6 11 Este 36 Nordeste 0.2 1007.1 0.3 75
2020-03-27 06:00:00 14.3 14 Este 34 Este 0 1006.9 0.2 75
2020-03-27 05:00:00 14.6 17 Este 35 Este 0 1006.8 0.1 73
2020-03-27 04:00:00 15.1 13 Este 30 Sudeste 0 1006.8 -0.1 68
2020-03-27 03:00:00 14.7 4 Nordeste 12 Sudoeste 0 1006.7 -0.4 56
2020-03-27 02:00:00 15.2 9 Noroeste 14 Noroeste 0 1006.7 -0.5 55
2020-03-27 01:00:00 15.6 0 Calma 16 Norte 0 1006.9 0 56
2020-03-27 00:00:00 16.3 0 Calma 6 Nordeste 0 1007.1 0.5 53
2020-03-26 23:00:00 16.4 0 Calma 3 Norte 0 1007.2 1.5 53
2020-03-26 22:00:00 17.7 0 Calma 3 Nordeste 0 1006.9 1.8 47
2020-03-26 21:00:00 19 0 Calma 2 Oeste 0 1006.6 1.9 40
2020-03-26 20:00:00 19.8 0 Calma 29 Oeste 0 1005.7 0.8 35
2020-03-26 19:00:00 21.3 10 Oeste 31 Oeste 0 1005.1 0 31
2020-03-26 18:00:00 22.4 4 Noroeste 30 Oeste 0 1004.7 -1.1 29
2020-03-26 17:00:00 22.8 12 Noroeste 35 Oeste 0 1004.9 -1.9 28
2020-03-26 16:00:00 24.1 9 Noroeste 32 Noroeste 0 1005.1 -2.4 28
2020-03-26 15:00:00 21 0 Calma 26 Sudoeste 0 1005.8 -2.4 47
2020-03-26 14:00:00 18.3 0 Calma 14 Sudoeste 0 1006.8 -2 52
2020-03-26 13:00:00 19.9 0 Calma 28 Noroeste 0 1007.5 -1.2 44
2020-03-26 12:00:00 19.8 3 Noroeste 25 Noroeste 0 1008.2 -1.2 44
2020-03-26 11:00:00 19 0 Calma 17 Noroeste 0 1008.8 -1.1 47
2020-03-26 10:00:00 19.5 0 Calma 9 Sur 0 1008.7 -1.6 54
2020-03-26 09:00:00 12.9 0 Calma 2 Oeste 0 1009.4 -1.4 73
2020-03-26 08:00:00 11.1 0 Calma 2 Norte 0 1009.9 -1.3 82
2020-03-26 07:00:00 11 0 Calma 8 Noroeste 0 1010.3 -1.5 79
2020-03-26 06:00:00 11 0 Calma 2 Oeste 0 1010.8 -1.7 80
2020-03-26 05:00:00 11.5 0 Calma 3 Sudoeste 0 1011.2 -2.2 78
2020-03-26 04:00:00 11.7 0 Calma 2 Oeste 0 1011.8 -2.1 77
2020-03-26 03:00:00 11.2 0 Calma 13 Noroeste 0 1012.5 -1.8 78
2020-03-26 02:00:00 11.4 0 Calma 9 Norte 0 1013.4 -1.3 79
2020-03-26 01:00:00 11.7 3 Norte 12 Norte 0 1013.9 -1.1 76
2020-03-26 00:00:00 12.5 0 Calma 7 Norte 0 1014.3 -0.8 75
2020-03-25 23:00:00 13.5 0 Calma 0 Calma 0 1014.7 0.1 68
2020-03-25 22:00:00 13.9 0 Calma 2 Sur 0 1015 0.6 64
2020-03-25 21:00:00 13.8 0 Calma 6 Sudeste 0 1015.1 0.8 62
2020-03-25 20:00:00 13.8 3 Este 10 Sudeste 0 1014.6 -0.1 63
2020-03-25 19:00:00 13.9 4 Sudeste 9 Este 0 1014.4 -0.6 60
2020-03-25 18:00:00 14.7 0 Calma 8 Este 0 1014.3 -1.1 58
2020-03-25 17:00:00 14.7 0 Calma 9 Norte 0 1014.7 -1.4 63
2020-03-25 16:00:00 14.2 0 Calma 8 Nordeste 0.2 1015 -1.5 64
2020-03-25 15:00:00 15.9 0 Calma 7 Este 0.1 1015.4 -1.2 58
2020-03-25 14:00:00 13.9 4 Este 17 Nordeste 0 1016.1 0 68
2020-03-25 13:00:00 12.3 9 Este 26 Nordeste 0 1016.5 1.2 79
2020-03-25 12:00:00 12.2 13 Este 23 Sudeste 0 1016.6 1.9 81
2020-03-25 11:00:00 12.8 0 Calma 15 Sudeste 1.1 1016.1 1.8 76
2020-03-25 10:00:00 12.7 0 Calma 2 Norte 0.5 1015.3 2.1 86
2020-03-25 09:00:00 12.4 0 Calma 2 Oeste 3.2 1014.7 2.2 87
2020-03-25 08:00:00 12.8 0 Calma 3 Sudoeste 2.3 1014.3 2.4 86
2020-03-25 07:00:00 12.7 0 Calma 3 Oeste 1.2 1013.2 1.4 86
2020-03-25 06:00:00 13.5 0 Calma 3 Sudoeste 0.2 1012.5 0.6 88
2020-03-25 05:00:00 14 0 Calma 0 Calma 0.4 1011.9 0 86
2020-03-25 04:00:00 14.2 0 Calma 0 Calma 0 1011.8 0.2 85
2020-03-25 03:00:00 14.4 0 Calma 0 Calma 0 1011.9 0.3 84
2020-03-25 02:00:00 14.7 0 Calma 2 Noroeste 0 1011.9 0.7 82
2020-03-25 01:00:00 14.7 0 Calma 9 Noroeste 0 1011.6 0.7 81
2020-03-25 00:00:00 14.9 0 Calma 7 Norte 0 1011.6 1.5 81
2020-03-24 23:00:00 14.9 0 Calma 3 Nordeste 0 1011.2 2.2 80
2020-03-24 22:00:00 15.3 0 Calma 0 Calma 0 1010.9 3.1 76
2020-03-24 21:00:00 15.2 0 Calma 2 Noroeste 0.2 1010.1 3.1 75
2020-03-24 20:00:00 16 0 Calma 3 Sudoeste 0 1009 2.5 65
2020-03-24 19:00:00 16.5 0 Calma 6 Noroeste 0 1007.8 1.5 62
2020-03-24 18:00:00 17.4 3 Norte 14 Norte 0 1007 0.5 55
2020-03-24 17:00:00 18.6 0 Calma 4 Nordeste 0 1006.5 -0.3 51
2020-03-24 16:00:00 18.9 0 Calma 2 Sudoeste 0 1006.3 -0.6 52
2020-03-24 15:00:00 18.3 0 Calma 3 Noroeste 0 1006.5 -0.1 57
2020-03-24 14:00:00 17.3 3 Oeste 23 Oeste 0 1006.8 0.3 64
2020-03-24 13:00:00 15.7 0 Calma 20 Oeste 0 1006.9 0.7 65
2020-03-24 12:00:00 15.5 4 Oeste 19 Oeste 0 1006.6 0.4 68
2020-03-24 11:00:00 14 0 Calma 3 Sudoeste 0 1006.5 0.4 78
2020-03-24 10:00:00 12.6 0 Calma 4 Sudoeste 0 1006.2 0.7 84
2020-03-24 09:00:00 12.3 0 Calma 3 Noroeste 1.5 1006.2 1 84
2020-03-24 08:00:00 12.3 0 Calma 23 Oeste 0 1006.1 0.3 82
2020-03-24 07:00:00 12.4 12 Oeste 24 Oeste 0.4 1005.5 -0.3 80
2020-03-24 06:00:00 12.5 2 Noroeste 17 Noroeste 0.7 1005.2 -1.2 80
2020-03-24 05:00:00 12.2 0 Calma 20 Oeste 0.1 1005.8 -1.3 79
2020-03-24 04:00:00 12.1 4 Noroeste 19 Oeste 0.8 1005.8 -2.2 78
2020-03-24 03:00:00 12.5 3 Oeste 22 Oeste 0 1006.4 -2.1 76
2020-03-24 02:00:00 12.2 6 Oeste 16 Oeste 0 1007.1 -1.6 78
2020-03-24 01:00:00 12.3 0 Calma 2 Oeste 0 1008 -0.7 78
2020-03-24 00:00:00 12.1 0 Calma 20 Noroeste 0 1008.5 -0.4 79
2020-03-23 23:00:00 11.8 9 Oeste 22 Oeste 0.2 1008.7 -0.4 82
2020-03-23 22:00:00 11.6 10 Noroeste 21 Noroeste 0 1008.7 -0.5 84
2020-03-23 21:00:00 11.7 0 Calma 3 Oeste 0.1 1008.9 -0.7 85
2020-03-23 20:00:00 11.9 0 Calma 2 Noroeste 0 1009.1 -0.5 82
2020-03-23 19:00:00 11.9 0 Calma 2 Noroeste 0 1009.2 -0.6 84
2020-03-23 18:00:00 11.4 0 Calma 10 Norte 0.2 1009.6 -0.8 85
2020-03-23 17:00:00 11.2 0 Calma 17 Nordeste 4 1009.6 -1.1 85
2020-03-23 16:00:00 11.6 2 Nordeste 16 Norte 4.6 1009.8 -1.4 87
2020-03-23 15:00:00 11.8 0 Calma 0 Calma 7.7 1010.4 -1.1 85
2020-03-23 14:00:00 12.4 0 Calma 5 Este 4.2 1010.7 -0.5 80
2020-03-23 13:00:00 13 0 Calma 0 Calma 2 1011.2 -0.2 74
2020-03-23 12:00:00 14 0 Calma 0 Calma 0 1011.5 0.3 64
2020-03-23 11:00:00 15 0 Calma 0 Calma 0 1011.2 0.3 64
2020-03-23 10:00:00 12.7 0 Calma 10 Oeste 0 1011.4 1.1 71
2020-03-23 09:00:00 11.4 6 Noroeste 14 Noroeste 0 1011.2 0.9 72
2020-03-23 08:00:00 10.8 0 Calma 15 Norte 0 1010.9 0.7 75
2020-03-23 07:00:00 10.6 0 Calma 14 Noroeste 0 1010.3 0.1 74
2020-03-23 06:00:00 10.9 0 Calma 3 Nordeste 0 1010.3 -0.3 73
2020-03-23 05:00:00 10.8 0 Calma 3 Norte 0 1010.2 -0.7 73
2020-03-23 04:00:00 11 0 Calma 15 Noroeste 0 1010.2 -0.8 74
2020-03-23 03:00:00 10.9 0 Calma 13 Norte 0 1010.6 -0.6 74
2020-03-23 02:00:00 11.1 0 Calma 13 Noroeste 0 1010.9 -0.4 77
2020-03-23 01:00:00 11.4 0 Calma 2 Noroeste 0 1011 0 76
2020-03-23 00:00:00 12.1 0 Calma 12 Norte 0 1011.2 0.6 75
2020-03-22 23:00:00 12.2 0 Calma 9 Norte 0 1011.3 1.3 76
2020-03-22 22:00:00 12.8 0 Calma 9 Norte 0 1011 1.1 71
2020-03-22 21:00:00 13.1 0 Calma 14 Norte 0 1010.6 1.8 70
2020-03-22 20:00:00 14 4 Este 8 Nordeste 0 1010 1.4 68
2020-03-22 19:00:00 14 0 Calma 10 Sudeste 0 1009.9 1.5 66
2020-03-22 18:00:00 14.2 0 Calma 2 Sur 0 1008.8 0.1 64
2020-03-22 17:00:00 14.5 0 Calma 11 Sudeste 0 1008.6 0 64
2020-03-22 16:00:00 15.2 5 Este 18 Este 0 1008.4 -0.9 64
2020-03-22 15:00:00 14.5 9 Sudeste 20 Sudeste 0 1008.7 -0.9 64
2020-03-22 14:00:00 13.8 14 Sudeste 20 Sudeste 0 1008.6 -1 60
2020-03-22 13:00:00 14.2 11 Sudeste 16 Sudeste 0 1009.3 -0.1 57
2020-03-22 12:00:00 15 2 Sudeste 13 Sudeste 0 1009.6 0.5 53
2020-03-22 11:00:00 14.8 0 Calma 8 Este 0 1009.6 1.2 56
2020-03-22 10:00:00 13.2 0 Calma 5 Norte 0 1009.4 1.1 74
2020-03-22 09:00:00 12.3 0 Calma 0 Calma 0 1009.1 0.8 80
2020-03-22 08:00:00 11.3 0 Calma 4 Nordeste 0 1008.4 0.1 85
2020-03-22 07:00:00 10.8 0 Calma 6 Nordeste 0.1 1008.3 0.3 86
2020-03-22 06:00:00 10.6 0 Calma 10 Nordeste 1 1008.3 -0.6 86
2020-03-22 05:00:00 10.7 6 Nordeste 19 Nordeste 3.6 1008.3 -0.3 85
2020-03-22 04:00:00 11.8 8 Nordeste 20 Sudeste 1.4 1008 -1.5 80
2020-03-22 03:00:00 12.1 7 Sur 15 Sur 1.2 1008.9 -0.9 78
2020-03-22 02:00:00 11.7 0 Calma 19 Sudoeste 1 1008.6 -1.6 78
2020-03-22 01:00:00 11.7 19 Sudoeste 33 Sudoeste 0.6 1009.5 -0.7 80
2020-03-22 00:00:00 13.8 0 Calma 15 Nordeste 0 1009.8 -0.4 76
2020-03-21 23:00:00 13.5 8 Este 18 Este 0 1010.2 0.2 76
2020-03-21 22:00:00 13.6 5 Este 13 Nordeste 0 1010.2 0.3 75
2020-03-21 21:00:00 13.4 6 Sudeste 23 Sudoeste 0 1010.2 0.7 73
2020-03-21 20:00:00 12.9 15 Sudoeste 28 Sudoeste 0 1010 0.1 71
2020-03-21 19:00:00 12.6 14 Sur 26 Sur 1.6 1009.9 0.8 75
2020-03-21 18:00:00 14.1 0 Calma 5 Este 0.5 1009.5 0.1 61
2020-03-21 17:00:00 14.3 0 Calma 19 Sudoeste 0.1 1009.9 -0.3 55
2020-03-21 16:00:00 15.5 14 Sudoeste 27 Sudoeste 0 1009.1 -2.1 60
2020-03-21 15:00:00 15.6 14 Sur 29 Sudoeste 0 1009.4 -2 58
2020-03-21 14:00:00 16.2 12 Sur 22 Sur 0 1010.2 -1.3 54
2020-03-21 13:00:00 14.4 12 Sur 19 Sur 0 1011.2 -0.1 64
2020-03-21 12:00:00 15.4 9 Sur 15 Sur 0 1011.4 -0.2 60
2020-03-21 11:00:00 16.1 0 Calma 6 Sur 0 1011.5 -0.3 56
2020-03-21 10:00:00 17.2 3 Este 10 Norte 0.1 1011.3 0 56
2020-03-21 09:00:00 12.9 0 Calma 8 Nordeste 0 1011.6 0.6 77
2020-03-21 08:00:00 11.9 2 Nordeste 8 Nordeste 0 1011.8 0.8 88
2020-03-21 07:00:00 11.9 0 Calma 8 Nordeste 0 1011.3 0.5 89
2020-03-21 06:00:00 11.6 3 Nordeste 7 Nordeste 0.2 1011 0.6 90
2020-03-21 05:00:00 11 0 Calma 29 Sudoeste 11.4 1011 0.5 91
2020-03-21 04:00:00 13.8 18 Sudeste 47 Este 10.4 1010.8 -0.3 92
2020-03-21 03:00:00 14.4 24 Sudeste 39 Sudeste 3.6 1010.4 -1.4 89
2020-03-21 02:00:00 15.1 24 Sudeste 41 Este 0.3 1010.5 -1.7 82
2020-03-21 01:00:00 15.5 18 Este 38 Este 0.3 1011.1 -1.1 79
2020-03-21 00:00:00 15.5 18 Este 35 Este 0 1011.8 -0.3 79
2020-03-20 23:00:00 15.5 17 Este 46 Sudeste 0 1012.2 0 83
2020-03-20 22:00:00 15.7 12 Este 36 Sudeste 0 1012.2 0.3 79
2020-03-20 21:00:00 15.8 18 Sudeste 35 Sudeste 0 1012.1 0.7 78
2020-03-20 20:00:00 15.8 18 Sudeste 30 Sudeste 0 1012.2 1.6 78
2020-03-20 19:00:00 15.6 15 Sudeste 27 Sudeste 0 1011.9 1.2 76
2020-03-20 18:00:00 16.1 18 Sur 26 Sur 0 1011.4 0.1 70
2020-03-20 17:00:00 17.2 14 Sur 18 Sur 0 1010.6 -1.3 60
2020-03-20 16:00:00 17.9 2 Sudeste 13 Sudeste 0 1010.7 -2.3 57
2020-03-20 15:00:00 16.7 0 Calma 18 Sur 0 1011.3 -2.3 60
2020-03-20 14:00:00 20.4 0 Calma 24 Este 0 1011.9 -1.8 49
2020-03-20 13:00:00 18.5 5 Este 27 Sudeste 0 1013 -1 62
2020-03-20 12:00:00 16.1 18 Sudeste 26 Sudeste 0 1013.6 -0.1 68
2020-03-20 11:00:00 15.9 17 Sudeste 30 Sudeste 0 1013.7 0.8 66
2020-03-20 10:00:00 15.8 18 Sudeste 28 Sudeste 0 1014 1.6 68
2020-03-20 09:00:00 15.5 15 Sudeste 28 Sudeste 0 1013.7 1.4 68
2020-03-20 08:00:00 15.6 19 Sudeste 26 Sudeste 0 1012.9 1 69
2020-03-20 07:00:00 15.4 4 Este 13 Este 0 1012.4 0.4 72
2020-03-20 06:00:00 14.7 0 Calma 12 Nordeste 0 1012.3 -0.2 72
2020-03-20 05:00:00 14.6 0 Calma 11 Noroeste 0 1011.9 -1.4 72
2020-03-20 04:00:00 15.5 0 Calma 13 Sur 0 1012 -1.7 72
2020-03-20 03:00:00 15.7 9 Sur 19 Sur 0 1012.5 -1.2 71
2020-03-20 02:00:00 15.8 14 Sudeste 29 Sudeste 0 1013.3 -0.8 69
2020-03-20 01:00:00 15.6 13 Sudeste 23 Sudeste 0 1013.7 -0.4 76
2020-03-20 00:00:00 15.9 8 Sudeste 13 Sudeste 0 1013.7 -0.2 84
2020-03-19 23:00:00 15.9 0 Calma 9 Sur 0 1014.1 0.6 76
2020-03-19 22:00:00 15.9 0 Calma 0 Calma 0 1014.1 0.8 76
2020-03-19 21:00:00 15.8 0 Calma 10 Sudeste 0 1013.9 0.4 76
2020-03-19 20:00:00 15.9 8 Sudeste 15 Sudeste 0 1013.5 -0.2 74
2020-03-19 19:00:00 16 9 Sudeste 18 Este 0 1013.3 -0.8 72
2020-03-19 18:00:00 16.5 11 Este 19 Sudeste 0 1013.5 -0.8 71
2020-03-19 17:00:00 16.7 12 Sudeste 27 Sudeste 0 1013.7 -1.3 67
2020-03-19 16:00:00 16.8 17 Sudeste 30 Sudeste 0 1014.1 -1.8 67
2020-03-19 15:00:00 17.4 10 Sudeste 21 Sudeste 0 1014.3 -2 69
2020-03-19 14:00:00 17.7 11 Sudeste 21 Sudeste 0 1015 -1.3 66
2020-03-19 13:00:00 16.4 12 Sudeste 22 Sur 0 1015.9 -0.7 69
2020-03-19 12:00:00 17 5 Sudeste 15 Sudeste 0 1016.3 0 70
2020-03-19 11:00:00 17.4 0 Calma 3 Sudoeste 0 1016.3 0.2 69
2020-03-19 10:00:00 16.7 2 Sudoeste 17 Sudoeste 0 1016.6 0.5 69
2020-03-19 09:00:00 16.5 0 Calma 14 Sudoeste 0 1016.3 0.4 69
2020-03-19 08:00:00 16.1 0 Calma 2 Noroeste 0 1016.1 -0.1 70
2020-03-19 07:00:00 15.7 0 Calma 4 Norte 0 1016.1 -0.4 72
2020-03-19 06:00:00 15.7 0 Calma 0 Calma 0 1015.9 -1.4 72
2020-03-19 05:00:00 15.6 0 Calma 2 Sudoeste 0 1016.2 -1.4 76
2020-03-19 04:00:00 15.8 0 Calma 3 Sur 0 1016.5 -1.2 76
2020-03-19 03:00:00 15.8 0 Calma 9 Sur 0 1017.3 -0.9 76
2020-03-19 02:00:00 15.9 8 Sur 14 Sudeste 0 1017.6 -0.7 76
2020-03-19 01:00:00 15.8 9 Sudeste 15 Sudeste 0 1017.7 -0.2 78
2020-03-19 00:00:00 16.1 9 Sudeste 14 Sudeste 0 1018.2 0.9 77
2020-03-18 23:00:00 16.1 9 Sudeste 17 Este 0 1018.3 2 76
2020-03-18 22:00:00 16.4 8 Sudeste 22 Nordeste 0 1017.9 1.8 71
2020-03-18 21:00:00 16.6 6 Este 23 Nordeste 0 1017.3 1.1 68
2020-03-18 20:00:00 17 8 Este 27 Este 0 1016.3 0.1 66
2020-03-18 19:00:00 17.1 8 Este 34 Este 0 1016.1 -0.3 64
2020-03-18 18:00:00 17.3 14 Este 32 Este 0 1016.2 -0.5 62
2020-03-18 17:00:00 17.2 18 Sudeste 31 Sudeste 0 1016.2 -1.2 63
2020-03-18 16:00:00 17.5 14 Sudeste 22 Sudeste 0 1016.4 -1.6 64
2020-03-18 15:00:00 19.5 3 Este 19 Sudeste 0 1016.7 -1.5 56
2020-03-18 14:00:00 19.1 5 Sudeste 20 Este 0 1017.4 -0.9 59
2020-03-18 13:00:00 18.5 6 Este 26 Este 0 1018 0.4 61
2020-03-18 12:00:00 17.9 10 Este 28 Este 0 1018.2 0.9 63
2020-03-18 11:00:00 17.8 8 Este 33 Este 0 1018.3 1.3 63
2020-03-18 10:00:00 17.4 8 Este 27 Este 0 1017.6 1.1 64
2020-03-18 09:00:00 17.4 5 Este 26 Este 0 1017.3 1.5 65
2020-03-18 08:00:00 15.3 0 Calma 17 Norte 0 1017 1.9 71
2020-03-18 07:00:00 15.2 8 Noroeste 13 Noroeste 0 1016.5 1.5 70
2020-03-18 06:00:00 15.6 2 Norte 23 Sudeste 0 1015.8 0.2 68
2020-03-18 05:00:00 16.4 0 Calma 17 Este 0 1015.1 -0.4 65
2020-03-18 04:00:00 16.7 6 Nordeste 35 Este 0 1015 -2 65
2020-03-18 03:00:00 16.7 9 Este 46 Este 0 1015.6 -1.3 66
2020-03-18 02:00:00 16.7 22 Este 45 Este 0 1015.5 -1.2 71
2020-03-18 01:00:00 15.7 0 Calma 13 Este 0 1017 0.7 70
2020-03-18 00:00:00 14 4 Norte 14 Noroeste 0 1016.9 0 70
2020-03-17 23:00:00 13.9 0 Calma 5 Norte 0 1016.7 -0.2 72
2020-03-17 22:00:00 14 0 Calma 9 Norte 0 1016.3 -0.4 76
2020-03-17 21:00:00 14.9 0 Calma 9 Nordeste 0 1016.9 0.5 78
2020-03-17 20:00:00 15.1 6 Sudeste 14 Este 0 1016.9 0.6 78
2020-03-17 19:00:00 15.6 5 Este 19 Nordeste 0 1016.7 0.5 76
2020-03-17 18:00:00 15.2 7 Este 30 Sudeste 0 1016.4 0 77
2020-03-17 17:00:00 15.8 9 Este 32 Sudeste 0 1016.3 -0.7 69
2020-03-17 16:00:00 15.9 9 Este 40 Sudeste 0 1016.2 -1.1 62
2020-03-17 15:00:00 16.6 8 Sudeste 35 Sudeste 0 1016.4 -1.2 55
2020-03-17 14:00:00 16.5 17 Sudeste 34 Sudeste 0 1017 -0.8 51
2020-03-17 13:00:00 17.2 7 Sudeste 42 Este 0 1017.3 0.1 51
2020-03-17 12:00:00 14.5 9 Sudeste 30 Este 0.8 1017.6 0.8 66
2020-03-17 11:00:00 15.7 7 Este 17 Este 0 1017.8 1.7 52
2020-03-17 10:00:00 14.8 0 Calma 10 Noroeste 0 1017.2 1.8 53
2020-03-17 09:00:00 12.3 0 Calma 22 Sudoeste 0 1016.8 2.2 60
2020-03-17 08:00:00 13.7 6 Este 16 Este 0 1016.1 2 62
2020-03-17 07:00:00 13.4 5 Sudeste 20 Nordeste 0 1015.4 1.2 60
2020-03-17 06:00:00 13.7 10 Este 21 Este 0 1014.6 0.2 58
2020-03-17 05:00:00 13.4 9 Este 19 Nordeste 0 1014.1 -0.4 52
2020-03-17 04:00:00 13.1 9 Nordeste 15 Nordeste 0 1014.2 0.1 46
2020-03-17 03:00:00 12.6 2 Nordeste 5 Nordeste 0 1014.4 0 45
2020-03-17 02:00:00 12.8 0 Calma 17 Nordeste 0 1014.5 0.2 44
2020-03-17 01:00:00 13.1 0 Calma 14 Noroeste 0 1014.1 0.4 42
2020-03-17 00:00:00 13.4 0 Calma 12 Oeste 0 1014.4 1.4 40
2020-03-16 23:00:00 13.8 0 Calma 18 Noroeste 0 1014.3 2.2 37
2020-03-16 22:00:00 14.3 12 Noroeste 22 Noroeste 0 1013.7 2.2 35
2020-03-16 21:00:00 14.9 5 Noroeste 17 Noroeste 0 1013 2.2 33
2020-03-16 20:00:00 15.1 0 Calma 24 Oeste 0 1012.1 1.9 32
2020-03-16 19:00:00 15.8 2 Noroeste 27 Noroeste 0 1011.5 1.1 29
2020-03-16 18:00:00 16.8 3 Noroeste 34 Noroeste 0 1010.8 0.4 28
2020-03-16 17:00:00 16.5 20 Noroeste 43 Noroeste 0 1010.2 -0.6 27
2020-03-16 16:00:00 16.8 18 Noroeste 36 Norte 0 1010.4 -1.1 27
2020-03-16 15:00:00 17 10 Noroeste 31 Oeste 0 1010.4 -0.9 27
2020-03-16 14:00:00 16.4 14 Noroeste 36 Noroeste 0 1010.8 -1 26
2020-03-16 13:00:00 16 15 Noroeste 40 Norte 0 1011.5 -0.2 26
2020-03-16 12:00:00 15.2 5 Oeste 37 Oeste 0 1011.3 0.1 31
2020-03-16 11:00:00 14.4 10 Noroeste 37 Noroeste 0 1011.8 1.1 37
2020-03-16 10:00:00 13.2 7 Noroeste 31 Oeste 0 1011.7 1.6 41
2020-03-16 09:00:00 13.6 9 Oeste 25 Noroeste 0 1011.2 1.1 44
2020-03-16 08:00:00 14 15 Oeste 32 Noroeste 0 1010.7 1 46
2020-03-16 07:00:00 14.4 5 Noroeste 27 Noroeste 0 1010.1 0 56
2020-03-16 06:00:00 14.2 0 Calma 9 Noroeste 0 1010.1 -1 79
2020-03-16 05:00:00 14.4 0 Calma 2 Nordeste 0 1009.7 -1.6 79
2020-03-16 04:00:00 14.3 0 Calma 5 Norte 0 1010.1 -1.5 78
2020-03-16 03:00:00 14.1 0 Calma 12 Noroeste 0 1011.1 -1.1 79
2020-03-16 02:00:00 13.7 0 Calma 10 Norte 0 1011.3 -1.1 80
2020-03-16 01:00:00 13.7 6 Norte 13 Norte 0 1011.6 -1.2 83
2020-03-16 00:00:00 14.7 0 Calma 5 Sudeste 0 1012.2 -0.2 84
2020-03-15 23:00:00 14.8 0 Calma 4 Nordeste 0 1012.4 0.5 81
2020-03-15 22:00:00 15.2 0 Calma 0 Calma 0 1012.8 1 82
2020-03-15 21:00:00 15.4 0 Calma 0 Calma 0 1012.4 0 82
2020-03-15 20:00:00 15.7 0 Calma 0 Calma 0 1011.9 -0.8 80
2020-03-15 19:00:00 16 0 Calma 3 Este 0 1011.8 -1 78
2020-03-15 18:00:00 16.7 3 Este 8 Este 0 1012.4 -0.8 74
2020-03-15 17:00:00 16.4 0 Calma 2 Sudeste 0 1012.7 -1.7 77
2020-03-15 16:00:00 16.7 3 Sur 16 Sudeste 0 1012.8 -2.6 76
2020-03-15 15:00:00 16.2 0 Calma 24 Este 0.6 1013.2 -2.6 76
2020-03-15 14:00:00 15.9 4 Este 20 Sudeste 0.3 1014.4 -1.7 82
2020-03-15 13:00:00 15.4 13 Sudeste 19 Sudeste 0 1015.4 -0.6 79
2020-03-15 12:00:00 16.7 2 Sudeste 13 Este 0 1015.8 0.2 75
2020-03-15 11:00:00 16.8 3 Sudeste 11 Nordeste 0 1016.1 0.9 74
2020-03-15 10:00:00 16.2 5 Este 10 Este 0 1016 1.4 78
2020-03-15 09:00:00 15.8 0 Calma 0 Calma 0 1015.6 0.6 79
2020-03-15 08:00:00 15.5 0 Calma 0 Calma 0 1015.2 0.3 79
2020-03-15 07:00:00 15.2 0 Calma 0 Calma 0 1014.6 -0.8 80
2020-03-15 06:00:00 15.4 0 Calma 7 Norte 0 1015 -0.8 77
2020-03-15 05:00:00 15.3 2 Nordeste 15 Norte 0 1014.9 -1.4 76
2020-03-15 04:00:00 15.1 7 Norte 14 Norte 0 1015.4 -1 76
2020-03-15 03:00:00 15.4 0 Calma 0 Calma 0 1015.8 -0.9 71
2020-03-15 02:00:00 15.5 0 Calma 2 Norte 0 1016.3 -0.3 72
2020-03-15 01:00:00 15.2 0 Calma 2 Norte 0 1016.4 0.1 72
2020-03-15 00:00:00 14.6 0 Calma 9 Noroeste 0 1016.7 1 75
2020-03-14 23:00:00 14.8 0 Calma 6 Este 0 1016.6 1.2 75
2020-03-14 22:00:00 15.9 3 Este 7 Este 0 1016.3 0.9 78
2020-03-14 21:00:00 15.8 0 Calma 7 Este 0 1015.7 0.5 78
2020-03-14 20:00:00 15.9 4 Este 10 Sudeste 0 1015.4 0.3 76
2020-03-14 19:00:00 16.3 6 Sudeste 12 Sur 0 1015.4 -0.1 71
2020-03-14 18:00:00 17.9 0 Calma 12 Sudeste 0 1015.2 -0.7 64
2020-03-14 17:00:00 17.4 6 Sudeste 14 Sudeste 0 1015.1 -1.6 64
2020-03-14 16:00:00 17.5 8 Sudeste 15 Sudeste 0 1015.5 -1.8 64
2020-03-14 15:00:00 17.9 8 Sudeste 14 Sudeste 0 1015.9 -1.6 62
2020-03-14 14:00:00 17.6 9 Sudeste 14 Sudeste 0 1016.7 -1.2 61
2020-03-14 13:00:00 18.1 9 Sudeste 14 Sudeste 0 1017.3 -0.5 58
2020-03-14 12:00:00 19.4 4 Sur 11 Sudeste 0 1017.5 0.1 56
2020-03-14 11:00:00 18 7 Sudeste 10 Sudeste 0 1017.9 1 60
2020-03-14 10:00:00 17.6 0 Calma 9 Nordeste 0 1017.8 1.2 62
2020-03-14 09:00:00 15.6 0 Calma 13 Norte 0 1017.4 1.1 67
2020-03-14 08:00:00 14.9 0 Calma 12 Norte 0 1016.9 0.9 68
2020-03-14 07:00:00 15 3 Norte 14 Noroeste 0 1016.6 0.6 68
2020-03-14 06:00:00 14.9 0 Calma 11 Noroeste 0 1016.3 0.1 68
2020-03-14 05:00:00 15.2 0 Calma 12 Norte 0 1016 -0.3 68
2020-03-14 04:00:00 15 0 Calma 12 Norte 0 1016 -0.3 69
2020-03-14 03:00:00 15.1 0 Calma 6 Norte 0 1016.2 -0.1 74
2020-03-14 02:00:00 15.4 0 Calma 8 Nordeste 0 1016.3 0.2 80
2020-03-14 01:00:00 16 4 Este 10 Este 0 1016.3 0.9 82
2020-03-14 00:00:00 15 5 Este 14 Sur 0 1016.3 1.2 86
2020-03-13 23:00:00 16.2 5 Este 15 Este 0 1016.1 1.8 87
2020-03-13 22:00:00 16.7 7 Este 13 Nordeste 0 1015.4 1.5 79
2020-03-13 21:00:00 16.9 4 Este 17 Sudeste 0 1015.1 1.8 77
2020-03-13 20:00:00 17.1 5 Sudeste 20 Sudeste 0 1014.3 1.1 75
2020-03-13 19:00:00 17.1 11 Este 27 Sudeste 0 1013.9 0.9 73
2020-03-13 18:00:00 17.2 10 Sudeste 22 Sudeste 0 1013.3 0.1 79
2020-03-13 17:00:00 17.5 10 Sudeste 18 Sudeste 0 1013.2 -0.8 76
2020-03-13 16:00:00 17.9 8 Este 15 Este 0 1013 -1.1 72
2020-03-13 15:00:00 20.3 5 Este 15 Este 0 1013.2 -0.4 66
2020-03-13 14:00:00 18.6 5 Este 23 Este 0 1014 1.1 75
2020-03-13 13:00:00 19.7 4 Sudeste 15 Nordeste 0 1014.1 0.6 66
2020-03-13 12:00:00 18.9 6 Sudeste 14 Este 0 1013.6 0.3 65
2020-03-13 11:00:00 20.4 3 Este 9 Este 0 1012.9 -0.2 59
2020-03-13 10:00:00 19.4 2 Este 8 Este 0 1013.5 0.9 58
2020-03-13 09:00:00 18.2 4 Este 8 Este 0 1013.3 0.9 62
2020-03-13 08:00:00 15.9 0 Calma 5 Este 0 1013.1 0.4 68
2020-03-13 07:00:00 15.8 0 Calma 4 Este 0 1012.6 -0.3 67
2020-03-13 06:00:00 16.5 0 Calma 5 Este 0 1012.4 -1.1 63
2020-03-13 05:00:00 16.9 0 Calma 3 Nordeste 0 1012.7 -1.2 60
2020-03-13 04:00:00 16.9 0 Calma 0 Calma 0 1012.9 -1.2 59
2020-03-13 03:00:00 16.8 0 Calma 0 Calma 0 1013.5 -1.1 56
2020-03-13 02:00:00 17.1 3 Nordeste 13 Noroeste 0 1013.9 -0.6 51
2020-03-13 01:00:00 17.6 0 Calma 11 Norte 0 1014.1 -0.1 48
2020-03-13 00:00:00 17.9 0 Calma 12 Norte 0 1014.6 0.6 47
2020-03-12 23:00:00 18.3 4 Noroeste 9 Noroeste 0 1014.5 0.9 47
2020-03-12 22:00:00 18.8 0 Calma 2 Noroeste 0 1014.2 0.7 46
2020-03-12 21:00:00 19.4 0 Calma 4 Nordeste 0 1014 0.6 42
2020-03-12 20:00:00 19.3 0 Calma 4 Este 0 1013.6 0 43
2020-03-12 19:00:00 20.3 2 Sudeste 7 Sur 0 1013.5 -0.5 42
2020-03-12 18:00:00 21.2 4 Sudeste 7 Este 0 1013.4 -1 42
2020-03-12 17:00:00 23 0 Calma 9 Sudeste 0 1013.6 -1.7 40
2020-03-12 16:00:00 22.8 0 Calma 13 Sudoeste 0 1014 -2.2 39
2020-03-12 15:00:00 23.9 9 Sudoeste 17 Sudoeste 0 1014.4 -2.1 36
2020-03-12 14:00:00 24.8 0 Calma 5 Sudeste 0 1015.3 -1.4 36
2020-03-12 13:00:00 24.8 0 Calma 3 Sur 0 1016.2 -0.5 32
2020-03-12 12:00:00 26 0 Calma 5 Sur 0 1016.5 -0.3 30
2020-03-12 11:00:00 23.4 0 Calma 3 Noroeste 0 1016.7 -0.1 40
2020-03-12 10:00:00 20.8 0 Calma 0 Calma 0 1016.7 0.3 44
2020-03-12 09:00:00 18 0 Calma 3 Noroeste 0 1016.8 0.2 48
2020-03-12 08:00:00 15.8 0 Calma 17 Noroeste 0 1016.8 0.1 51
2020-03-12 07:00:00 16.3 8 Noroeste 16 Noroeste 0 1016.4 -0.9 49
2020-03-12 06:00:00 15.9 13 Noroeste 17 Noroeste 0 1016.6 -1.5 50
2020-03-12 05:00:00 16.2 8 Noroeste 15 Noroeste 0 1016.7 -1.6 50
2020-03-12 04:00:00 16.3 0 Calma 18 Norte 0 1017.3 -1.3 50
2020-03-12 03:00:00 16.5 9 Norte 15 Norte 0 1018.1 -0.4 51
2020-03-12 02:00:00 16.6 0 Calma 5 Norte 0 1018.3 -0.1 52
2020-03-12 01:00:00 17.2 0 Calma 8 Norte 0 1018.6 0.6 51
2020-03-12 00:00:00 17.4 0 Calma 0 Calma 0 1018.5 1.1 51
2020-03-11 23:00:00 17.7 0 Calma 3 Nordeste 0 1018.4 1 51
2020-03-11 22:00:00 18 0 Calma 0 Calma 0 1018 1 50
2020-03-11 21:00:00 19 0 Calma 4 Este 0 1017.4 0.1 47
2020-03-11 20:00:00 18.7 0 Calma 5 Sudeste 0 1017.4 0 49
2020-03-11 19:00:00 19.4 0 Calma 11 Este 0 1017 -1.1 44
2020-03-11 18:00:00 20.6 4 Este 9 Sudeste 0 1017.3 -1.4 41
2020-03-11 17:00:00 20.8 4 Este 10 Este 0 1017.4 -2.3 38
2020-03-11 16:00:00 21.2 3 Sudeste 16 Este 0 1018.1 -2.4 40
2020-03-11 15:00:00 23.2 2 Este 12 Sur 0 1018.7 -2.7 38
2020-03-11 14:00:00 19.3 0 Calma 12 Sudeste 0 1019.7 -1.7 44
2020-03-11 13:00:00 22.2 4 Este 14 Nordeste 0 1020.5 -0.3 39
2020-03-11 12:00:00 20.7 0 Calma 10 Sudeste 0 1021.4 0.9 40
2020-03-11 11:00:00 18.8 4 Sudeste 8 Este 0 1021.4 0.1 45
2020-03-11 10:00:00 20.2 0 Calma 8 Este 0 1020.8 -0.1 44
2020-03-11 09:00:00 18.8 3 Este 7 Nordeste 0 1020.5 -0.5 48
2020-03-11 08:00:00 14.7 0 Calma 3 Norte 0 1021.3 0.1 54
2020-03-11 07:00:00 14 0 Calma 3 Norte 0 1020.9 -0.8 53
2020-03-11 06:00:00 14.1 0 Calma 12 Noroeste 0 1021 -1.2 52
2020-03-11 05:00:00 14 0 Calma 6 Oeste 0 1021.2 -1.6 52
2020-03-11 04:00:00 14.4 3 Norte 14 Noroeste 0 1021.7 -1.5 50
2020-03-11 03:00:00 14.5 0 Calma 15 Norte 0 1022.2 -1.2 49
2020-03-11 02:00:00 15 3 Noroeste 17 Noroeste 0 1022.8 -0.6 49
2020-03-11 01:00:00 15.1 0 Calma 15 Norte 0 1023.2 -0.4 48
2020-03-11 00:00:00 15.4 0 Calma 9 Norte 0 1023.4 0 48
2020-03-10 23:00:00 16.2 0 Calma 13 Norte 0 1023.4 0.2 46
2020-03-10 22:00:00 16.6 3 Norte 10 Norte 0 1023.6 0.4 45
2020-03-10 21:00:00 17.6 0 Calma 10 Este 0 1023.4 0.4 43
2020-03-10 20:00:00 17.7 6 Este 11 Este 0 1023.2 0.1 45
2020-03-10 19:00:00 17.5 7 Este 12 Este 0 1023.2 0 47
2020-03-10 18:00:00 18.3 6 Este 15 Este 0 1023 -0.3 48
2020-03-10 17:00:00 17.8 6 Sudeste 14 Sudeste 0 1023.1 -0.4 55
2020-03-10 16:00:00 18.9 4 Sudeste 18 Sudeste 0 1023.2 -0.4 56
2020-03-10 15:00:00 21.1 3 Este 28 Este 0 1023.3 -0.3 47
2020-03-10 14:00:00 19.5 13 Este 26 Este 0 1023.5 0.6 44
2020-03-10 13:00:00 21.6 8 Este 22 Sudeste 0 1023.6 1.5 39
2020-03-10 12:00:00 20.3 4 Este 16 Este 0 1023.6 2.5 44
2020-03-10 11:00:00 22.8 0 Calma 5 Este 0 1022.9 1.8 32
2020-03-10 10:00:00 22.9 0 Calma 9 Noroeste 0 1022.1 1.4 36
2020-03-10 09:00:00 17.9 4 Noroeste 17 Norte 0 1021.1 0.9 46
2020-03-10 08:00:00 15.7 3 Norte 13 Norte 0 1021.1 -- 53
2020-03-10 07:00:00 15.6 0 Calma 15 Oeste 0 1020.7 1.1 55
2020-03-10 06:00:00 15.7 0 Calma 3 Norte 0 1020.2 0.5 58
2020-03-10 05:00:00 -- 0 Calma 6 Nordeste 0 -- -- --
2020-03-10 04:00:00 16.6 3 Este 28 Nordeste 0 1019.6 -0.5 64
2020-03-10 03:00:00 19.6 0 Calma 25 Oeste 0 1019.7 -0.6 36
2020-03-10 02:00:00 20.2 0 Calma 16 Oeste 0 1020.3 0.1 36
2020-03-10 01:00:00 20.6 0 Calma 3 Noroeste 0 1020.1 0.1 36
2020-03-10 00:00:00 20.4 0 Calma 20 Oeste 0 1020.3 0.7 36